Easton, Minnesota
Current Conditions -  °F | °C
As of 1:54 AM on Friday 31 Oct 2014 (Local Time) from KACQ Reporting Station
Clear Clear  
Wind Chill: 20°   Ceiling: Unl
Heat Index: 30°   Visibility: 10mi
Dew Point: 12°   Wind: 13mph
Humidity: 47%   Direction: 340°NNW
Pressure: 30.4"   Gusts: 20mph
Location:  43.77°N, 93.9°W
Report Text: KACQ 310654Z AUTO 34011G17KT 10SM CLR M01/M11 A3040 RMK AO2
Loading
Personal Weather Stations






























Interactive Weather Map
Tropical Storm Tracking
New forecast layout! Learn more

10-Day Weather Forecast

Advertisements
Track Severe Weather on mobile